sensor_id;sensor_type;location;lat;lon;timestamp;P1;durP1;ratioP1;P2;durP2;ratioP2
49139;SDS011;34959;49.310;8.646;2024-02-28T00:01:23;3.42;;;2.45;;
49139;SDS011;34959;49.310;8.646;2024-02-28T00:03:49;4.60;;;2.20;;
49139;SDS011;34959;49.310;8.646;2024-02-28T00:06:16;4.35;;;2.38;;
49139;SDS011;34959;49.310;8.646;2024-02-28T00:08:41;8.90;;;2.25;;
49139;SDS011;34959;49.310;8.646;2024-02-28T00:11:07;5.82;;;2.05;;
49139;SDS011;34959;49.310;8.646;2024-02-28T00:13:32;2.95;;;2.13;;
49139;SDS011;34959;49.310;8.646;2024-02-28T00:15:57;2.20;;;1.88;;
49139;SDS011;34959;49.310;8.646;2024-02-28T00:18:23;5.68;;;1.95;;
49139;SDS011;34959;49.310;8.646;2024-02-28T00:20:48;5.35;;;1.70;;
49139;SDS011;34959;49.310;8.646;2024-02-28T00:23:14;3.67;;;1.80;;
49139;SDS011;34959;49.310;8.646;2024-02-28T00:25:39;3.05;;;1.70;;
49139;SDS011;34959;49.310;8.646;2024-02-28T00:28:05;2.25;;;1.50;;
49139;SDS011;34959;49.310;8.646;2024-02-28T00:30:30;2.17;;;1.48;;
49139;SDS011;34959;49.310;8.646;2024-02-28T00:32:57;2.33;;;1.70;;
49139;SDS011;34959;49.310;8.646;2024-02-28T00:35:25;4.15;;;1.85;;
49139;SDS011;34959;49.310;8.646;2024-02-28T00:37:51;4.30;;;1.90;;
49139;SDS011;34959;49.310;8.646;2024-02-28T00:40:16;2.30;;;1.63;;
49139;SDS011;34959;49.310;8.646;2024-02-28T00:42:41;2.53;;;1.88;;
49139;SDS011;34959;49.310;8.646;2024-02-28T00:45:08;3.95;;;2.10;;
49139;SDS011;34959;49.310;8.646;2024-02-28T00:47:34;3.03;;;1.70;;
49139;SDS011;34959;49.310;8.646;2024-02-28T00:50:00;2.60;;;1.70;;
49139;SDS011;34959;49.310;8.646;2024-02-28T00:52:28;3.03;;;1.70;;
49139;SDS011;34959;49.310;8.646;2024-02-28T00:54:53;2.78;;;1.50;;
49139;SDS011;34959;49.310;8.646;2024-02-28T00:57:19;3.72;;;1.83;;
49139;SDS011;34959;49.310;8.646;2024-02-28T00:59:44;2.17;;;1.60;;
49139;SDS011;34959;49.310;8.646;2024-02-28T01:02:10;2.47;;;1.50;;
49139;SDS011;34959;49.310;8.646;2024-02-28T01:04:35;4.57;;;1.85;;
49139;SDS011;34959;49.310;8.646;2024-02-28T01:07:00;4.20;;;1.92;;
49139;SDS011;34959;49.310;8.646;2024-02-28T01:09:26;14.50;;;2.42;;
49139;SDS011;34959;49.310;8.646;2024-02-28T01:11:51;9.13;;;2.10;;
49139;SDS011;34959;49.310;8.646;2024-02-28T01:14:17;9.60;;;1.90;;
49139;SDS011;34959;49.310;8.646;2024-02-28T01:16:42;4.47;;;1.92;;
49139;SDS011;34959;49.310;8.646;2024-02-28T01:19:07;6.22;;;1.80;;
49139;SDS011;34959;49.310;8.646;2024-02-28T01:21:33;5.70;;;2.30;;
49139;SDS011;34959;49.310;8.646;2024-02-28T01:23:58;6.88;;;2.20;;
49139;SDS011;34959;49.310;8.646;2024-02-28T01:26:23;3.67;;;1.88;;
49139;SDS011;34959;49.310;8.646;2024-02-28T01:28:49;8.82;;;2.25;;
49139;SDS011;34959;49.310;8.646;2024-02-28T01:31:15;3.55;;;2.00;;
49139;SDS011;34959;49.310;8.646;2024-02-28T01:33:41;3.13;;;1.88;;
49139;SDS011;34959;49.310;8.646;2024-02-28T01:36:06;3.30;;;1.98;;
49139;SDS011;34959;49.310;8.646;2024-02-28T01:38:32;3.97;;;2.00;;
49139;SDS011;34959;49.310;8.646;2024-02-28T01:40:57;3.92;;;1.90;;
49139;SDS011;34959;49.310;8.646;2024-02-28T01:43:23;5.28;;;1.80;;
49139;SDS011;34959;49.310;8.646;2024-02-28T01:45:49;6.55;;;2.55;;
49139;SDS011;34959;49.310;8.646;2024-02-28T01:48:15;4.72;;;2.10;;
49139;SDS011;34959;49.310;8.646;2024-02-28T01:50:41;4.35;;;2.05;;
49139;SDS011;34959;49.310;8.646;2024-02-28T01:53:06;3.10;;;2.05;;
49139;SDS011;34959;49.310;8.646;2024-02-28T01:55:38;3.10;;;1.80;;
49139;SDS011;34959;49.310;8.646;2024-02-28T01:58:03;3.75;;;1.80;;
49139;SDS011;34959;49.310;8.646;2024-02-28T02:00:33;3.20;;;2.10;;
49139;SDS011;34959;49.310;8.646;2024-02-28T02:02:59;2.65;;;1.90;;
49139;SDS011;34959;49.310;8.646;2024-02-28T02:05:26;3.40;;;1.88;;
49139;SDS011;34959;49.310;8.646;2024-02-28T02:07:51;2.50;;;1.80;;
49139;SDS011;34959;49.310;8.646;2024-02-28T02:10:16;3.20;;;1.92;;
49139;SDS011;34959;49.310;8.646;2024-02-28T02:12:46;3.25;;;2.10;;
49139;SDS011;34959;49.310;8.646;2024-02-28T02:15:12;2.70;;;1.92;;
49139;SDS011;34959;49.310;8.646;2024-02-28T02:17:37;3.10;;;2.10;;
49139;SDS011;34959;49.310;8.646;2024-02-28T02:20:02;5.85;;;1.98;;
49139;SDS011;34959;49.310;8.646;2024-02-28T02:22:39;2.50;;;1.80;;
49139;SDS011;34959;49.310;8.646;2024-02-28T02:25:05;4.82;;;1.90;;
49139;SDS011;34959;49.310;8.646;2024-02-28T02:27:31;3.70;;;2.00;;
49139;SDS011;34959;49.310;8.646;2024-02-28T02:29:56;2.85;;;1.77;;
49139;SDS011;34959;49.310;8.646;2024-02-28T02:32:21;3.28;;;2.00;;
49139;SDS011;34959;49.310;8.646;2024-02-28T02:34:47;3.53;;;1.95;;
49139;SDS011;34959;49.310;8.646;2024-02-28T02:37:12;2.60;;;1.70;;
49139;SDS011;34959;49.310;8.646;2024-02-28T02:39:38;6.32;;;2.25;;
49139;SDS011;34959;49.310;8.646;2024-02-28T02:42:03;4.97;;;1.90;;
49139;SDS011;34959;49.310;8.646;2024-02-28T02:44:29;2.53;;;1.35;;
49139;SDS011;34959;49.310;8.646;2024-02-28T02:46:54;7.13;;;2.13;;
49139;SDS011;34959;49.310;8.646;2024-02-28T02:49:20;2.80;;;1.70;;
49139;SDS011;34959;49.310;8.646;2024-02-28T02:51:45;2.70;;;1.95;;
49139;SDS011;34959;49.310;8.646;2024-02-28T02:54:10;4.80;;;1.85;;
49139;SDS011;34959;49.310;8.646;2024-02-28T02:56:36;6.07;;;1.70;;
49139;SDS011;34959;49.310;8.646;2024-02-28T02:59:01;5.00;;;2.20;;
49139;SDS011;34959;49.310;8.646;2024-02-28T03:01:27;3.85;;;2.10;;
49139;SDS011;34959;49.310;8.646;2024-02-28T03:03:52;5.30;;;1.80;;
49139;SDS011;34959;49.310;8.646;2024-02-28T03:06:18;2.35;;;1.67;;
49139;SDS011;34959;49.310;8.646;2024-02-28T03:08:43;3.10;;;1.80;;
49139;SDS011;34959;49.310;8.646;2024-02-28T03:11:09;2.72;;;1.95;;
49139;SDS011;34959;49.310;8.646;2024-02-28T03:13:34;2.92;;;2.00;;
49139;SDS011;34959;49.310;8.646;2024-02-28T03:15:59;4.97;;;1.95;;
49139;SDS011;34959;49.310;8.646;2024-02-28T03:18:25;2.50;;;2.00;;
49139;SDS011;34959;49.310;8.646;2024-02-28T03:20:50;3.20;;;2.00;;
49139;SDS011;34959;49.310;8.646;2024-02-28T03:23:16;2.78;;;1.88;;
49139;SDS011;34959;49.310;8.646;2024-02-28T03:25:41;3.00;;;2.20;;
49139;SDS011;34959;49.310;8.646;2024-02-28T03:28:06;2.40;;;1.98;;
49139;SDS011;34959;49.310;8.646;2024-02-28T03:30:32;2.35;;;1.85;;
49139;SDS011;34959;49.310;8.646;2024-02-28T03:32:57;4.20;;;2.17;;
49139;SDS011;34959;49.310;8.646;2024-02-28T03:35:22;2.30;;;1.77;;
49139;SDS011;34959;49.310;8.646;2024-02-28T03:37:48;3.42;;;1.95;;
49139;SDS011;34959;49.310;8.646;2024-02-28T03:40:13;3.15;;;1.80;;
49139;SDS011;34959;49.310;8.646;2024-02-28T03:42:40;2.17;;;1.63;;
49139;SDS011;34959;49.310;8.646;2024-02-28T03:45:05;2.47;;;1.65;;
49139;SDS011;34959;49.310;8.646;2024-02-28T03:47:31;2.42;;;1.70;;
49139;SDS011;34959;49.310;8.646;2024-02-28T03:49:56;2.60;;;1.70;;
49139;SDS011;34959;49.310;8.646;2024-02-28T03:52:22;2.38;;;1.83;;
49139;SDS011;34959;49.310;8.646;2024-02-28T03:54:48;6.13;;;1.90;;
49139;SDS011;34959;49.310;8.646;2024-02-28T03:57:13;2.70;;;2.00;;
49139;SDS011;34959;49.310;8.646;2024-02-28T03:59:40;1.92;;;1.60;;
49139;SDS011;34959;49.310;8.646;2024-02-28T04:02:06;2.53;;;1.70;;
49139;SDS011;34959;49.310;8.646;2024-02-28T04:04:31;2.70;;;2.05;;
49139;SDS011;34959;49.310;8.646;2024-02-28T04:06:56;2.65;;;1.92;;
49139;SDS011;34959;49.310;8.646;2024-02-28T04:09:22;2.58;;;1.80;;
49139;SDS011;34959;49.310;8.646;2024-02-28T04:11:47;3.25;;;2.05;;
49139;SDS011;34959;49.310;8.646;2024-02-28T04:14:13;2.70;;;1.70;;
49139;SDS011;34959;49.310;8.646;2024-02-28T04:16:42;2.35;;;1.70;;
49139;SDS011;34959;49.310;8.646;2024-02-28T04:19:09;2.25;;;1.80;;
49139;SDS011;34959;49.310;8.646;2024-02-28T04:21:35;3.33;;;1.65;;
49139;SDS011;34959;49.310;8.646;2024-02-28T04:24:00;2.67;;;2.05;;
49139;SDS011;34959;49.310;8.646;2024-02-28T04:26:26;3.92;;;1.75;;
49139;SDS011;34959;49.310;8.646;2024-02-28T04:28:51;3.72;;;1.70;;
49139;SDS011;34959;49.310;8.646;2024-02-28T04:31:16;3.72;;;2.00;;
49139;SDS011;34959;49.310;8.646;2024-02-28T04:33:42;2.65;;;1.98;;
49139;SDS011;34959;49.310;8.646;2024-02-28T04:36:07;2.67;;;1.77;;
49139;SDS011;34959;49.310;8.646;2024-02-28T04:38:33;2.00;;;1.50;;
49139;SDS011;34959;49.310;8.646;2024-02-28T04:40:58;2.25;;;1.63;;
49139;SDS011;34959;49.310;8.646;2024-02-28T04:43:23;3.38;;;1.90;;
49139;SDS011;34959;49.310;8.646;2024-02-28T04:45:49;2.38;;;1.80;;
49139;SDS011;34959;49.310;8.646;2024-02-28T04:48:14;2.17;;;1.65;;
49139;SDS011;34959;49.310;8.646;2024-02-28T04:50:39;4.43;;;2.03;;
49139;SDS011;34959;49.310;8.646;2024-02-28T04:53:05;4.25;;;1.80;;
49139;SDS011;34959;49.310;8.646;2024-02-28T04:55:30;2.10;;;1.77;;
49139;SDS011;34959;49.310;8.646;2024-02-28T04:57:55;5.93;;;1.67;;
49139;SDS011;34959;49.310;8.646;2024-02-28T05:00:21;3.72;;;2.03;;
49139;SDS011;34959;49.310;8.646;2024-02-28T05:02:46;2.40;;;1.77;;
49139;SDS011;34959;49.310;8.646;2024-02-28T05:05:12;3.42;;;1.73;;
49139;SDS011;34959;49.310;8.646;2024-02-28T05:07:37;2.33;;;1.48;;
49139;SDS011;34959;49.310;8.646;2024-02-28T05:10:03;4.00;;;1.80;;
49139;SDS011;34959;49.310;8.646;2024-02-28T05:12:28;4.40;;;1.90;;
49139;SDS011;34959;49.310;8.646;2024-02-28T05:14:53;7.35;;;1.52;;
49139;SDS011;34959;49.310;8.646;2024-02-28T05:17:19;3.13;;;1.75;;
49139;SDS011;34959;49.310;8.646;2024-02-28T05:19:44;4.15;;;1.70;;
49139;SDS011;34959;49.310;8.646;2024-02-28T05:22:10;2.95;;;1.70;;
49139;SDS011;34959;49.310;8.646;2024-02-28T05:24:36;4.88;;;1.60;;
49139;SDS011;34959;49.310;8.646;2024-02-28T05:27:02;2.85;;;1.70;;
49139;SDS011;34959;49.310;8.646;2024-02-28T05:29:27;3.65;;;1.70;;
49139;SDS011;34959;49.310;8.646;2024-02-28T05:31:53;2.35;;;1.65;;
49139;SDS011;34959;49.310;8.646;2024-02-28T05:34:18;2.15;;;1.40;;
49139;SDS011;34959;49.310;8.646;2024-02-28T05:36:43;2.88;;;1.73;;
49139;SDS011;34959;49.310;8.646;2024-02-28T05:39:09;2.75;;;1.80;;
49139;SDS011;34959;49.310;8.646;2024-02-28T05:41:34;3.75;;;1.63;;
49139;SDS011;34959;49.310;8.646;2024-02-28T05:44:00;2.83;;;1.92;;
49139;SDS011;34959;49.310;8.646;2024-02-28T05:46:25;2.35;;;1.70;;
49139;SDS011;34959;49.310;8.646;2024-02-28T05:48:50;1.90;;;1.70;;
49139;SDS011;34959;49.310;8.646;2024-02-28T05:51:16;2.20;;;1.58;;
49139;SDS011;34959;49.310;8.646;2024-02-28T05:53:41;2.30;;;1.73;;
49139;SDS011;34959;49.310;8.646;2024-02-28T05:56:08;3.80;;;1.48;;
49139;SDS011;34959;49.310;8.646;2024-02-28T05:58:44;2.45;;;1.58;;
49139;SDS011;34959;49.310;8.646;2024-02-28T06:01:10;2.97;;;1.85;;
49139;SDS011;34959;49.310;8.646;2024-02-28T06:03:38;3.85;;;1.60;;
49139;SDS011;34959;49.310;8.646;2024-02-28T06:06:04;2.47;;;1.75;;
49139;SDS011;34959;49.310;8.646;2024-02-28T06:08:34;3.45;;;1.70;;
49139;SDS011;34959;49.310;8.646;2024-02-28T06:11:00;4.43;;;1.60;;
49139;SDS011;34959;49.310;8.646;2024-02-28T06:13:27;2.33;;;1.60;;
49139;SDS011;34959;49.310;8.646;2024-02-28T06:15:52;2.35;;;1.70;;
49139;SDS011;34959;49.310;8.646;2024-02-28T06:18:18;8.02;;;1.85;;
49139;SDS011;34959;49.310;8.646;2024-02-28T06:20:43;5.63;;;1.90;;
49139;SDS011;34959;49.310;8.646;2024-02-28T06:23:09;4.95;;;1.80;;
49139;SDS011;34959;49.310;8.646;2024-02-28T06:25:34;6.55;;;1.70;;
49139;SDS011;34959;49.310;8.646;2024-02-28T06:28:00;2.72;;;1.65;;
49139;SDS011;34959;49.310;8.646;2024-02-28T06:30:28;2.33;;;1.70;;
49139;SDS011;34959;49.310;8.646;2024-02-28T06:32:53;2.95;;;1.70;;
49139;SDS011;34959;49.310;8.646;2024-02-28T06:35:18;6.63;;;1.85;;
49139;SDS011;34959;49.310;8.646;2024-02-28T06:37:44;2.35;;;1.60;;
49139;SDS011;34959;49.310;8.646;2024-02-28T06:40:14;2.95;;;1.80;;
49139;SDS011;34959;49.310;8.646;2024-02-28T06:42:40;3.22;;;1.77;;
49139;SDS011;34959;49.310;8.646;2024-02-28T06:45:06;2.60;;;1.60;;
49139;SDS011;34959;49.310;8.646;2024-02-28T06:47:32;2.78;;;1.70;;
49139;SDS011;34959;49.310;8.646;2024-02-28T06:49:58;2.22;;;1.67;;
49139;SDS011;34959;49.310;8.646;2024-02-28T06:52:23;2.08;;;1.48;;
49139;SDS011;34959;49.310;8.646;2024-02-28T06:54:48;2.38;;;1.75;;
49139;SDS011;34959;49.310;8.646;2024-02-28T06:57:14;2.03;;;1.60;;
49139;SDS011;34959;49.310;8.646;2024-02-28T06:59:39;2.72;;;1.63;;
49139;SDS011;34959;49.310;8.646;2024-02-28T07:02:05;3.33;;;1.65;;
49139;SDS011;34959;49.310;8.646;2024-02-28T07:04:30;7.63;;;1.80;;
49139;SDS011;34959;49.310;8.646;2024-02-28T07:06:56;4.20;;;1.70;;
49139;SDS011;34959;49.310;8.646;2024-02-28T07:09:21;7.18;;;1.73;;
49139;SDS011;34959;49.310;8.646;2024-02-28T07:11:50;3.53;;;2.03;;
49139;SDS011;34959;49.310;8.646;2024-02-28T07:14:16;4.10;;;2.00;;
49139;SDS011;34959;49.310;8.646;2024-02-28T07:16:41;7.95;;;1.83;;
49139;SDS011;34959;49.310;8.646;2024-02-28T07:19:07;12.68;;;2.38;;
49139;SDS011;34959;49.310;8.646;2024-02-28T07:21:32;3.50;;;1.90;;
49139;SDS011;34959;49.310;8.646;2024-02-28T07:23:58;5.82;;;1.65;;
49139;SDS011;34959;49.310;8.646;2024-02-28T07:26:23;3.35;;;1.52;;
49139;SDS011;34959;49.310;8.646;2024-02-28T07:28:49;5.00;;;1.65;;
49139;SDS011;34959;49.310;8.646;2024-02-28T07:31:18;4.95;;;1.80;;
49139;SDS011;34959;49.310;8.646;2024-02-28T07:33:44;3.35;;;1.88;;
49139;SDS011;34959;49.310;8.646;2024-02-28T07:36:09;3.85;;;1.90;;
49139;SDS011;34959;49.310;8.646;2024-02-28T07:38:35;4.35;;;1.75;;
49139;SDS011;34959;49.310;8.646;2024-02-28T07:41:00;2.65;;;1.80;;
49139;SDS011;34959;49.310;8.646;2024-02-28T07:43:26;6.00;;;1.80;;
49139;SDS011;34959;49.310;8.646;2024-02-28T07:45:52;3.00;;;1.80;;
49139;SDS011;34959;49.310;8.646;2024-02-28T07:48:17;2.17;;;1.45;;
49139;SDS011;34959;49.310;8.646;2024-02-28T07:50:45;4.38;;;1.70;;
49139;SDS011;34959;49.310;8.646;2024-02-28T07:53:12;2.40;;;1.63;;
49139;SDS011;34959;49.310;8.646;2024-02-28T07:55:38;4.53;;;1.73;;
49139;SDS011;34959;49.310;8.646;2024-02-28T07:58:04;2.80;;;1.65;;
49139;SDS011;34959;49.310;8.646;2024-02-28T08:00:30;6.72;;;2.10;;
49139;SDS011;34959;49.310;8.646;2024-02-28T08:02:58;3.10;;;1.50;;
49139;SDS011;34959;49.310;8.646;2024-02-28T08:05:23;6.10;;;1.80;;
49139;SDS011;34959;49.310;8.646;2024-02-28T08:07:49;3.58;;;2.17;;
49139;SDS011;34959;49.310;8.646;2024-02-28T08:10:14;3.15;;;1.70;;
49139;SDS011;34959;49.310;8.646;2024-02-28T08:12:40;3.65;;;1.90;;
49139;SDS011;34959;49.310;8.646;2024-02-28T08:15:05;2.50;;;1.55;;
49139;SDS011;34959;49.310;8.646;2024-02-28T08:17:30;3.78;;;1.70;;
49139;SDS011;34959;49.310;8.646;2024-02-28T08:19:56;6.13;;;1.70;;
49139;SDS011;34959;49.310;8.646;2024-02-28T08:22:21;3.40;;;1.80;;
49139;SDS011;34959;49.310;8.646;2024-02-28T08:24:47;5.45;;;2.00;;
49139;SDS011;34959;49.310;8.646;2024-02-28T08:27:12;18.17;;;2.08;;
49139;SDS011;34959;49.310;8.646;2024-02-28T08:29:41;6.22;;;2.00;;
49139;SDS011;34959;49.310;8.646;2024-02-28T08:32:09;3.42;;;1.98;;
49139;SDS011;34959;49.310;8.646;2024-02-28T08:34:35;2.92;;;1.73;;
49139;SDS011;34959;49.310;8.646;2024-02-28T08:37:01;2.70;;;1.80;;
49139;SDS011;34959;49.310;8.646;2024-02-28T08:39:26;4.88;;;2.03;;
49139;SDS011;34959;49.310;8.646;2024-02-28T08:41:51;2.38;;;1.73;;
49139;SDS011;34959;49.310;8.646;2024-02-28T08:44:17;3.22;;;1.80;;
49139;SDS011;34959;49.310;8.646;2024-02-28T08:46:43;3.40;;;1.70;;
49139;SDS011;34959;49.310;8.646;2024-02-28T08:49:08;4.15;;;1.77;;
49139;SDS011;34959;49.310;8.646;2024-02-28T08:51:34;1.73;;;1.38;;
49139;SDS011;34959;49.310;8.646;2024-02-28T08:53:59;3.70;;;1.80;;
49139;SDS011;34959;49.310;8.646;2024-02-28T08:56:25;2.10;;;1.77;;
49139;SDS011;34959;49.310;8.646;2024-02-28T08:58:50;4.25;;;1.70;;
49139;SDS011;34959;49.310;8.646;2024-02-28T09:01:16;3.30;;;1.65;;
49139;SDS011;34959;49.310;8.646;2024-02-28T09:03:41;4.03;;;1.67;;
49139;SDS011;34959;49.310;8.646;2024-02-28T09:06:07;3.97;;;1.83;;
49139;SDS011;34959;49.310;8.646;2024-02-28T09:08:32;4.28;;;2.05;;
49139;SDS011;34959;49.310;8.646;2024-02-28T09:10:58;3.47;;;1.55;;
49139;SDS011;34959;49.310;8.646;2024-02-28T09:13:23;2.72;;;1.85;;
49139;SDS011;34959;49.310;8.646;2024-02-28T09:15:48;2.22;;;1.63;;
49139;SDS011;34959;49.310;8.646;2024-02-28T09:18:14;6.22;;;1.80;;
49139;SDS011;34959;49.310;8.646;2024-02-28T09:20:39;5.18;;;1.67;;
49139;SDS011;34959;49.310;8.646;2024-02-28T09:23:05;2.25;;;1.85;;
49139;SDS011;34959;49.310;8.646;2024-02-28T09:25:31;3.63;;;1.60;;
49139;SDS011;34959;49.310;8.646;2024-02-28T09:27:58;3.00;;;1.60;;
49139;SDS011;34959;49.310;8.646;2024-02-28T09:30:25;2.47;;;1.52;;
49139;SDS011;34959;49.310;8.646;2024-02-28T09:32:50;1.88;;;1.40;;
49139;SDS011;34959;49.310;8.646;2024-02-28T09:35:16;2.92;;;2.10;;
49139;SDS011;34959;49.310;8.646;2024-02-28T09:37:41;2.25;;;1.65;;
49139;SDS011;34959;49.310;8.646;2024-02-28T09:40:08;3.85;;;1.83;;
49139;SDS011;34959;49.310;8.646;2024-02-28T09:42:35;3.58;;;1.98;;
49139;SDS011;34959;49.310;8.646;2024-02-28T09:45:00;3.90;;;1.95;;
49139;SDS011;34959;49.310;8.646;2024-02-28T09:47:26;2.60;;;1.95;;
49139;SDS011;34959;49.310;8.646;2024-02-28T09:49:52;23.40;;;16.13;;
49139;SDS011;34959;49.310;8.646;2024-02-28T09:52:18;22.65;;;17.05;;
49139;SDS011;34959;49.310;8.646;2024-02-28T09:54:44;19.45;;;16.17;;
49139;SDS011;34959;49.310;8.646;2024-02-28T09:57:10;19.10;;;16.17;;
49139;SDS011;34959;49.310;8.646;2024-02-28T09:59:36;19.55;;;14.60;;
49139;SDS011;34959;49.310;8.646;2024-02-28T10:02:03;15.80;;;12.07;;
49139;SDS011;34959;49.310;8.646;2024-02-28T10:04:29;12.70;;;9.70;;
49139;SDS011;34959;49.310;8.646;2024-02-28T10:06:54;14.68;;;9.40;;
49139;SDS011;34959;49.310;8.646;2024-02-28T10:09:19;11.23;;;8.50;;
49139;SDS011;34959;49.310;8.646;2024-02-28T10:11:45;10.20;;;7.38;;
49139;SDS011;34959;49.310;8.646;2024-02-28T10:14:11;8.73;;;6.45;;
49139;SDS011;34959;49.310;8.646;2024-02-28T10:16:37;8.15;;;6.15;;
49139;SDS011;34959;49.310;8.646;2024-02-28T10:19:04;8.15;;;6.00;;
49139;SDS011;34959;49.310;8.646;2024-02-28T10:21:30;7.28;;;5.32;;
49139;SDS011;34959;49.310;8.646;2024-02-28T10:24:00;7.57;;;5.30;;
49139;SDS011;34959;49.310;8.646;2024-02-28T10:26:26;5.85;;;4.40;;
49139;SDS011;34959;49.310;8.646;2024-02-28T10:28:51;6.03;;;4.57;;
49139;SDS011;34959;49.310;8.646;2024-02-28T10:31:17;7.20;;;4.53;;
49139;SDS011;34959;49.310;8.646;2024-02-28T10:33:42;7.57;;;4.05;;
49139;SDS011;34959;49.310;8.646;2024-02-28T10:36:08;5.55;;;3.92;;
49139;SDS011;34959;49.310;8.646;2024-02-28T10:38:34;5.85;;;3.50;;
49139;SDS011;34959;49.310;8.646;2024-02-28T10:41:00;5.22;;;3.40;;
49139;SDS011;34959;49.310;8.646;2024-02-28T10:43:27;5.53;;;3.53;;
49139;SDS011;34959;49.310;8.646;2024-02-28T10:45:54;5.32;;;3.25;;
49139;SDS011;34959;49.310;8.646;2024-02-28T10:48:21;5.10;;;3.85;;
49139;SDS011;34959;49.310;8.646;2024-02-28T10:50:48;6.35;;;3.67;;
49139;SDS011;34959;49.310;8.646;2024-02-28T10:53:14;8.40;;;3.20;;
49139;SDS011;34959;49.310;8.646;2024-02-28T10:55:42;4.60;;;3.22;;
49139;SDS011;34959;49.310;8.646;2024-02-28T10:58:11;4.20;;;3.05;;
49139;SDS011;34959;49.310;8.646;2024-02-28T11:00:39;5.85;;;3.20;;
49139;SDS011;34959;49.310;8.646;2024-02-28T11:03:16;5.85;;;3.05;;
49139;SDS011;34959;49.310;8.646;2024-02-28T11:05:42;5.10;;;3.22;;
49139;SDS011;34959;49.310;8.646;2024-02-28T11:08:12;4.43;;;3.58;;
49139;SDS011;34959;49.310;8.646;2024-02-28T11:10:45;4.43;;;3.30;;
49139;SDS011;34959;49.310;8.646;2024-02-28T11:13:22;4.93;;;3.13;;
49139;SDS011;34959;49.310;8.646;2024-02-28T11:15:48;3.95;;;3.00;;
49139;SDS011;34959;49.310;8.646;2024-02-28T11:18:13;3.95;;;2.67;;
49139;SDS011;34959;49.310;8.646;2024-02-28T11:20:38;3.60;;;3.17;;
49139;SDS011;34959;49.310;8.646;2024-02-28T11:23:05;3.40;;;3.00;;
49139;SDS011;34959;49.310;8.646;2024-02-28T11:25:31;3.83;;;3.00;;
49139;SDS011;34959;49.310;8.646;2024-02-28T11:27:57;3.88;;;2.90;;
49139;SDS011;34959;49.310;8.646;2024-02-28T11:30:22;4.07;;;3.20;;
49139;SDS011;34959;49.310;8.646;2024-02-28T11:32:51;4.70;;;2.90;;
49139;SDS011;34959;49.310;8.646;2024-02-28T11:35:18;4.10;;;3.20;;
49139;SDS011;34959;49.310;8.646;2024-02-28T11:37:45;4.10;;;2.90;;
49139;SDS011;34959;49.310;8.646;2024-02-28T11:40:11;3.45;;;2.80;;
49139;SDS011;34959;49.310;8.646;2024-02-28T11:42:37;4.15;;;3.10;;
49139;SDS011;34959;49.310;8.646;2024-02-28T11:45:03;3.97;;;2.80;;
49139;SDS011;34959;49.310;8.646;2024-02-28T11:47:31;3.42;;;2.50;;
49139;SDS011;34959;49.310;8.646;2024-02-28T11:49:58;4.22;;;3.00;;
49139;SDS011;34959;49.310;8.646;2024-02-28T11:52:25;4.43;;;2.45;;
49139;SDS011;34959;49.310;8.646;2024-02-28T11:54:53;3.08;;;2.45;;
49139;SDS011;34959;49.310;8.646;2024-02-28T11:57:19;3.30;;;2.60;;
49139;SDS011;34959;49.310;8.646;2024-02-28T11:59:44;3.63;;;2.70;;
49139;SDS011;34959;49.310;8.646;2024-02-28T12:02:13;5.03;;;3.00;;
49139;SDS011;34959;49.310;8.646;2024-02-28T12:04:40;3.35;;;2.60;;
49139;SDS011;34959;49.310;8.646;2024-02-28T12:07:07;4.82;;;2.78;;
49139;SDS011;34959;49.310;8.646;2024-02-28T12:09:33;3.40;;;2.50;;
49139;SDS011;34959;49.310;8.646;2024-02-28T12:12:02;4.72;;;2.47;;
49139;SDS011;34959;49.310;8.646;2024-02-28T12:14:32;4.47;;;2.80;;
49139;SDS011;34959;49.310;8.646;2024-02-28T12:16:58;3.40;;;2.60;;
49139;SDS011;34959;49.310;8.646;2024-02-28T12:19:24;3.90;;;2.67;;
49139;SDS011;34959;49.310;8.646;2024-02-28T12:21:49;2.97;;;2.50;;
49139;SDS011;34959;49.310;8.646;2024-02-28T12:24:15;3.58;;;2.30;;
49139;SDS011;34959;49.310;8.646;2024-02-28T12:26:40;3.20;;;2.50;;
49139;SDS011;34959;49.310;8.646;2024-02-28T12:29:06;3.60;;;2.83;;
49139;SDS011;34959;49.310;8.646;2024-02-28T12:31:32;4.10;;;2.83;;
49139;SDS011;34959;49.310;8.646;2024-02-28T12:33:57;4.65;;;2.60;;
49139;SDS011;34959;49.310;8.646;2024-02-28T12:36:22;2.85;;;2.30;;
49139;SDS011;34959;49.310;8.646;2024-02-28T12:38:48;4.47;;;2.65;;
49139;SDS011;34959;49.310;8.646;2024-02-28T12:41:13;3.53;;;2.45;;
49139;SDS011;34959;49.310;8.646;2024-02-28T12:43:40;2.78;;;2.40;;
49139;SDS011;34959;49.310;8.646;2024-02-28T12:46:06;4.20;;;2.70;;
49139;SDS011;34959;49.310;8.646;2024-02-28T12:48:40;3.70;;;2.40;;
49139;SDS011;34959;49.310;8.646;2024-02-28T12:51:06;3.08;;;2.40;;
49139;SDS011;34959;49.310;8.646;2024-02-28T12:53:33;2.60;;;2.38;;
49139;SDS011;34959;49.310;8.646;2024-02-28T12:55:59;2.70;;;2.33;;
49139;SDS011;34959;49.310;8.646;2024-02-28T12:58:25;3.33;;;2.40;;
49139;SDS011;34959;49.310;8.646;2024-02-28T13:00:50;5.05;;;2.40;;
49139;SDS011;34959;49.310;8.646;2024-02-28T13:03:16;2.65;;;2.35;;
49139;SDS011;34959;49.310;8.646;2024-02-28T13:05:42;2.97;;;2.22;;
49139;SDS011;34959;49.310;8.646;2024-02-28T13:08:08;3.33;;;2.30;;
49139;SDS011;34959;49.310;8.646;2024-02-28T13:10:34;5.13;;;2.53;;
49139;SDS011;34959;49.310;8.646;2024-02-28T13:13:02;2.97;;;2.13;;
49139;SDS011;34959;49.310;8.646;2024-02-28T13:15:28;3.83;;;2.60;;
49139;SDS011;34959;49.310;8.646;2024-02-28T13:17:53;4.65;;;2.40;;
49139;SDS011;34959;49.310;8.646;2024-02-28T13:20:19;4.55;;;2.53;;
49139;SDS011;34959;49.310;8.646;2024-02-28T13:22:44;3.47;;;2.22;;
49139;SDS011;34959;49.310;8.646;2024-02-28T13:25:10;2.70;;;2.30;;
49139;SDS011;34959;49.310;8.646;2024-02-28T13:27:36;2.88;;;2.47;;
49139;SDS011;34959;49.310;8.646;2024-02-28T13:30:02;3.95;;;2.30;;
49139;SDS011;34959;49.310;8.646;2024-02-28T13:32:28;4.35;;;2.20;;
49139;SDS011;34959;49.310;8.646;2024-02-28T13:34:53;3.35;;;2.35;;
49139;SDS011;34959;49.310;8.646;2024-02-28T13:37:18;4.32;;;2.58;;
49139;SDS011;34959;49.310;8.646;2024-02-28T13:39:44;3.13;;;2.25;;
49139;SDS011;34959;49.310;8.646;2024-02-28T13:42:10;2.83;;;2.13;;
49139;SDS011;34959;49.310;8.646;2024-02-28T13:44:36;3.10;;;2.17;;
49139;SDS011;34959;49.310;8.646;2024-02-28T13:47:05;3.58;;;1.95;;
49139;SDS011;34959;49.310;8.646;2024-02-28T13:49:31;3.15;;;2.25;;
49139;SDS011;34959;49.310;8.646;2024-02-28T13:51:56;3.50;;;1.90;;
49139;SDS011;34959;49.310;8.646;2024-02-28T13:54:22;2.63;;;2.00;;
49139;SDS011;34959;49.310;8.646;2024-02-28T13:56:47;2.65;;;2.22;;
49139;SDS011;34959;49.310;8.646;2024-02-28T13:59:12;4.18;;;2.10;;
49139;SDS011;34959;49.310;8.646;2024-02-28T14:01:38;2.30;;;2.08;;
49139;SDS011;34959;49.310;8.646;2024-02-28T14:04:03;2.72;;;2.30;;
49139;SDS011;34959;49.310;8.646;2024-02-28T14:06:29;2.85;;;2.10;;
49139;SDS011;34959;49.310;8.646;2024-02-28T14:08:55;3.10;;;2.17;;
49139;SDS011;34959;49.310;8.646;2024-02-28T14:11:21;3.55;;;2.20;;
49139;SDS011;34959;49.310;8.646;2024-02-28T14:13:47;3.80;;;2.30;;
49139;SDS011;34959;49.310;8.646;2024-02-28T14:16:13;3.83;;;2.17;;
49139;SDS011;34959;49.310;8.646;2024-02-28T14:18:38;3.35;;;2.17;;
49139;SDS011;34959;49.310;8.646;2024-02-28T14:21:04;3.65;;;2.17;;
49139;SDS011;34959;49.310;8.646;2024-02-28T14:23:29;3.58;;;2.08;;
49139;SDS011;34959;49.310;8.646;2024-02-28T14:25:55;2.38;;;2.13;;
49139;SDS011;34959;49.310;8.646;2024-02-28T14:28:21;2.70;;;2.20;;
49139;SDS011;34959;49.310;8.646;2024-02-28T14:30:47;2.38;;;1.95;;
49139;SDS011;34959;49.310;8.646;2024-02-28T14:33:14;3.30;;;2.20;;
49139;SDS011;34959;49.310;8.646;2024-02-28T14:35:40;4.53;;;2.22;;
49139;SDS011;34959;49.310;8.646;2024-02-28T14:38:06;3.55;;;2.15;;
49139;SDS011;34959;49.310;8.646;2024-02-28T14:40:32;5.07;;;3.13;;